Time;durP1;ratioP1;P1;durP2;ratioP2;P2;SDS_P1;SDS_P2;PMS_P1;PMS_P2;Temp;Humidity;BMP_temperature;BMP_pressure;BME280_temperature;BME280_humidity;BME280_pressure;Samples;Min_cycle;Max_cycle;Signal;HPM_P1;HPM_P2
2023/06/16 00:00:33;;;;;;;5.00;4.60;;;27.80;51.30;;;;;;5020866;28;20469;-65
2023/06/16 00:03:03;;;;;;;5.03;4.67;;;27.80;51.20;;;;;;5022457;28;20462;-65
2023/06/16 00:05:34;;;;;;;5.13;4.57;;;27.80;51.20;;;;;;5019975;28;20442;-65
2023/06/16 00:08:03;;;;;;;5.33;5.03;;;27.80;51.20;;;;;;5019295;28;20972;-65
2023/06/16 00:10:32;;;;;;;5.17;4.77;;;27.80;51.20;;;;;;5010043;28;20468;-66
2023/06/16 00:13:00;;;;;;;4.80;4.50;;;27.80;51.20;;;;;;5020844;28;20814;-65
2023/06/16 00:15:28;;;;;;;4.77;4.47;;;27.80;51.20;;;;;;5023433;28;20492;-65
2023/06/16 00:17:56;;;;;;;5.17;4.73;;;27.80;51.20;;;;;;5017453;28;20520;-65
2023/06/16 00:20:26;;;;;;;5.47;5.00;;;27.80;51.10;;;;;;5023263;28;20949;-64
2023/06/16 00:22:57;;;;;;;5.47;5.07;;;27.80;51.10;;;;;;5025257;28;20499;-65
2023/06/16 00:25:25;;;;;;;5.67;5.23;;;27.70;50.80;;;;;;5017897;28;20941;-65
2023/06/16 00:27:54;;;;;;;5.90;5.50;;;27.60;50.80;;;;;;5021449;28;20937;-65
2023/06/16 00:30:22;;;;;;;5.80;5.40;;;27.60;51.00;;;;;;5016563;28;20453;-65
2023/06/16 00:32:51;;;;;;;4.60;4.20;;;27.50;51.20;;;;;;5014297;28;20542;-65
2023/06/16 00:35:20;;;;;;;4.70;4.40;;;27.50;51.20;;;;;;5015553;28;21059;-65
2023/06/16 00:37:49;;;;;;;6.20;5.60;;;27.50;51.30;;;;;;5023396;28;20465;-65
2023/06/16 00:40:18;;;;;;;5.33;4.93;;;27.50;51.30;;;;;;5019103;28;20470;-65
2023/06/16 00:42:46;;;;;;;4.67;4.37;;;27.40;51.30;;;;;;5020987;28;20475;-65
2023/06/16 00:45:14;;;;;;;5.73;5.23;;;27.40;51.30;;;;;;5031799;28;20456;-65
2023/06/16 00:47:43;;;;;;;5.37;4.97;;;27.40;51.30;;;;;;5019702;28;20510;-65
2023/06/16 00:50:12;;;;;;;5.37;4.97;;;27.40;51.30;;;;;;5025617;28;20465;-65
2023/06/16 00:52:40;;;;;;;5.13;4.70;;;27.40;51.30;;;;;;5013594;28;20533;-65
2023/06/16 00:55:11;;;;;;;5.27;4.87;;;27.40;51.30;;;;;;5028870;28;20514;-65
2023/06/16 00:57:40;;;;;;;5.40;5.10;;;27.40;51.30;;;;;;5031249;28;20556;-65
2023/06/16 01:00:11;;;;;;;5.00;4.70;;;27.30;51.30;;;;;;5014218;28;20530;-65
2023/06/16 01:02:39;;;;;;;5.17;4.67;;;27.30;51.30;;;;;;5024730;28;20547;-65
2023/06/16 01:05:09;;;;;;;5.77;5.37;;;27.30;51.30;;;;;;5022268;28;20465;-65
2023/06/16 01:07:44;;;;;;;4.63;4.33;;;27.30;51.30;;;;;;5013322;28;20538;-65
2023/06/16 01:10:18;;;;;;;5.50;5.10;;;27.30;51.30;;;;;;5031452;28;20440;-65
2023/06/16 01:12:56;;;;;;;6.57;4.70;;;27.30;51.30;;;;;;5019675;28;20478;-65
2023/06/16 01:15:27;;;;;;;5.27;4.87;;;27.30;51.30;;;;;;5018254;28;20968;-65
2023/06/16 01:17:59;;;;;;;4.60;4.30;;;27.30;51.30;;;;;;5029745;28;20460;-65
2023/06/16 01:20:41;;;;;;;5.50;5.10;;;27.20;51.30;;;;;;5012296;28;20457;-65
2023/06/16 01:23:20;;;;;;;5.53;5.03;;;27.20;51.30;;;;;;5016091;28;20470;-64
2023/06/16 01:25:53;;;;;;;5.57;5.17;;;27.20;51.30;;;;;;5037212;28;20460;-65
2023/06/16 01:28:24;;;;;;;5.13;4.73;;;27.20;51.30;;;;;;5028714;28;20567;-65
2023/06/16 01:30:53;;;;;;;4.67;4.37;;;27.20;51.30;;;;;;5014993;28;20447;-65
2023/06/16 01:33:25;;;;;;;5.93;5.53;;;27.20;51.40;;;;;;5028303;28;20477;-64
2023/06/16 01:35:56;;;;;;;5.13;4.83;;;27.20;51.40;;;;;;5020397;28;21028;-64
2023/06/16 01:38:26;;;;;;;4.73;4.33;;;27.20;51.40;;;;;;5030180;28;20462;-65
2023/06/16 01:40:56;;;;;;;5.17;4.80;;;27.20;51.40;;;;;;5013979;28;20804;-64
2023/06/16 01:43:26;;;;;;;5.73;5.40;;;27.20;51.40;;;;;;5023706;28;20483;-64
2023/06/16 01:45:55;;;;;;;5.17;4.77;;;27.20;51.40;;;;;;5025118;28;20456;-64
2023/06/16 01:48:25;;;;;;;5.63;5.00;;;27.10;51.40;;;;;;5025466;28;20505;-64
2023/06/16 01:50:54;;;;;;;4.73;4.33;;;27.10;51.50;;;;;;5030783;28;20477;-64
2023/06/16 01:53:22;;;;;;;5.90;5.40;;;27.10;51.50;;;;;;5031886;28;20475;-65
2023/06/16 01:55:52;;;;;;;5.13;4.83;;;27.10;51.50;;;;;;5019061;28;20531;-64
2023/06/16 01:58:24;;;;;;;5.13;4.80;;;27.10;51.50;;;;;;5021234;28;20482;-64
2023/06/16 02:00:57;;;;;;;5.27;4.87;;;27.10;51.50;;;;;;5042116;28;20480;-65
2023/06/16 02:03:31;;;;;;;5.33;4.93;;;27.10;51.50;;;;;;5023660;28;20514;-64
2023/06/16 02:06:01;;;;;;;5.73;5.07;;;27.10;51.50;;;;;;5021628;28;20468;-64
2023/06/16 02:08:32;;;;;;;5.70;5.30;;;27.10;51.60;;;;;;5017051;28;20521;-64
2023/06/16 02:11:01;;;;;;;4.60;4.30;;;27.00;51.60;;;;;;5020656;28;20951;-64
2023/06/16 02:13:32;;;;;;;5.20;4.80;;;27.00;51.60;;;;;;5023579;28;20831;-64
2023/06/16 02:16:01;;;;;;;5.10;4.80;;;27.00;51.60;;;;;;5021418;28;20875;-64
2023/06/16 02:18:32;;;;;;;4.83;4.53;;;27.00;51.60;;;;;;5011004;28;20480;-64
2023/06/16 02:21:01;;;;;;;5.70;5.20;;;27.00;51.70;;;;;;5026620;28;20458;-64
2023/06/16 02:23:31;;;;;;;5.70;5.30;;;27.00;51.70;;;;;;5022743;28;20461;-64
2023/06/16 02:25:59;;;;;;;5.07;4.70;;;27.00;51.70;;;;;;5024899;28;21059;-64
2023/06/16 02:28:27;;;;;;;5.60;5.20;;;27.00;51.70;;;;;;5023040;28;21131;-65
2023/06/16 02:31:00;;;;;;;5.80;5.30;;;26.90;51.70;;;;;;5016811;28;20483;-65
2023/06/16 02:33:28;;;;;;;5.27;4.87;;;26.90;51.80;;;;;;5030067;28;20505;-65
2023/06/16 02:35:57;;;;;;;6.83;5.07;;;26.90;51.80;;;;;;5022210;28;20570;-65
2023/06/16 02:38:25;;;;;;;5.30;4.90;;;26.90;51.80;;;;;;5029987;28;20474;-64
2023/06/16 02:40:53;;;;;;;5.27;4.97;;;26.90;51.80;;;;;;5028959;28;20455;-64
2023/06/16 02:43:23;;;;;;;5.30;5.00;;;26.90;51.80;;;;;;5027594;28;20475;-65
2023/06/16 02:45:51;;;;;;;5.07;4.77;;;26.90;51.80;;;;;;5030415;28;20480;-65
2023/06/16 02:48:21;;;;;;;5.40;5.00;;;26.90;51.90;;;;;;5020973;28;20474;-64
2023/06/16 02:50:53;;;;;;;5.47;4.97;;;26.90;51.80;;;;;;5011192;28;20460;-64
2023/06/16 02:53:24;;;;;;;5.47;5.07;;;26.90;51.80;;;;;;5023016;28;20471;-65
2023/06/16 02:55:55;;;;;;;5.40;5.10;;;26.90;51.80;;;;;;5042750;28;20466;-65
2023/06/16 02:58:25;;;;;;;5.47;5.17;;;26.90;51.90;;;;;;5019586;28;20565;-65
2023/06/16 03:00:54;;;;;;;5.30;4.90;;;26.80;51.90;;;;;;5027824;28;20462;-64
2023/06/16 03:03:36;;;;;;;5.70;5.30;;;26.80;51.90;;;;;;5025013;28;20518;-64
2023/06/16 03:06:44;;;;;;;5.10;4.60;;;26.80;51.90;;;;;;5015944;28;20908;-65
2023/06/16 03:09:24;;;;;;;5.33;4.87;;;26.80;51.90;;;;;;5022456;28;20474;-64
2023/06/16 03:11:53;;;;;;;6.10;5.70;;;26.80;51.90;;;;;;5015644;28;20951;-64
2023/06/16 03:14:23;;;;;;;5.30;5.00;;;26.80;51.90;;;;;;5019069;28;20550;-64
2023/06/16 03:16:53;;;;;;;5.87;5.37;;;26.80;51.90;;;;;;5026850;28;20581;-64
2023/06/16 03:19:24;;;;;;;5.30;5.00;;;26.80;51.90;;;;;;5027564;28;20475;-64
2023/06/16 03:21:53;;;;;;;6.07;5.50;;;26.80;51.90;;;;;;5016549;28;20447;-64
2023/06/16 03:24:33;;;;;;;5.13;4.77;;;26.80;52.00;;;;;;5023273;28;20960;-64
2023/06/16 03:27:03;;;;;;;5.90;5.50;;;26.80;52.00;;;;;;5010646;28;20456;-65
2023/06/16 03:29:44;;;;;;;5.60;5.20;;;26.80;52.00;;;;;;5032240;28;20576;-64
2023/06/16 03:32:12;;;;;;;5.40;5.00;;;26.80;52.00;;;;;;5024387;28;20455;-64
2023/06/16 03:34:44;;;;;;;6.10;5.60;;;26.80;52.00;;;;;;5014098;28;20503;-64
2023/06/16 03:37:12;;;;;;;5.70;5.20;;;26.80;52.10;;;;;;5027315;28;20949;-64
2023/06/16 03:39:41;;;;;;;5.40;5.00;;;26.80;52.10;;;;;;5012213;28;20956;-64
2023/06/16 03:42:10;;;;;;;6.07;5.67;;;26.80;52.10;;;;;;5030893;28;20452;-64
2023/06/16 03:44:41;;;;;;;5.57;5.17;;;26.70;52.10;;;;;;5026601;28;20986;-64
2023/06/16 03:47:10;;;;;;;5.57;5.27;;;26.70;52.10;;;;;;5040138;28;20475;-64
2023/06/16 03:49:38;;;;;;;5.27;4.87;;;26.70;52.10;;;;;;5017287;28;20462;-65
2023/06/16 03:52:09;;;;;;;6.30;5.80;;;26.70;52.10;;;;;;5028187;28;20472;-65
2023/06/16 03:54:37;;;;;;;5.63;5.23;;;26.70;52.10;;;;;;5046798;28;20833;-65
2023/06/16 03:57:06;;;;;;;5.80;5.40;;;26.70;52.10;;;;;;5019675;28;20458;-65
2023/06/16 03:59:35;;;;;;;5.70;5.23;;;26.70;52.10;;;;;;5037808;28;20466;-65
2023/06/16 04:02:07;;;;;;;5.90;5.50;;;26.70;52.20;;;;;;5024842;28;20459;-64
2023/06/16 04:04:37;;;;;;;4.90;4.60;;;26.70;52.20;;;;;;5015038;28;20499;-64
2023/06/16 04:07:09;;;;;;;5.03;4.73;;;26.70;52.20;;;;;;5030560;28;21371;-64
2023/06/16 04:09:37;;;;;;;5.20;4.90;;;26.70;52.10;;;;;;5021394;28;20475;-64
2023/06/16 04:12:06;;;;;;;5.60;5.20;;;26.70;52.20;;;;;;5019463;28;20461;-64
2023/06/16 04:14:36;;;;;;;4.90;4.60;;;26.70;52.20;;;;;;5017159;28;20475;-64
2023/06/16 04:17:06;;;;;;;4.93;4.63;;;26.70;52.20;;;;;;5037604;28;20561;-64
2023/06/16 04:19:35;;;;;;;5.37;4.97;;;26.70;52.20;;;;;;5024409;28;20478;-64
2023/06/16 04:22:03;;;;;;;5.97;5.47;;;26.70;52.20;;;;;;5034589;28;20551;-65
2023/06/16 04:24:45;;;;;;;5.20;4.90;;;26.70;52.20;;;;;;5015497;28;20459;-64
2023/06/16 04:27:15;;;;;;;5.40;5.03;;;26.70;52.10;;;;;;5023122;28;20505;-64
2023/06/16 04:29:45;;;;;;;5.60;5.20;;;26.70;52.20;;;;;;5017596;28;20475;-64
2023/06/16 04:32:15;;;;;;;5.57;5.10;;;26.70;52.20;;;;;;5034823;28;20459;-65
2023/06/16 04:34:46;;;;;;;5.30;4.90;;;26.70;52.20;;;;;;5023481;28;20498;-64
2023/06/16 04:37:16;;;;;;;4.73;4.43;;;26.70;52.20;;;;;;5019769;28;20482;-64
2023/06/16 04:39:47;;;;;;;5.33;5.00;;;26.70;52.20;;;;;;5025942;28;20466;-64
2023/06/16 04:42:20;;;;;;;5.77;5.30;;;26.70;52.20;;;;;;5036570;28;20542;-64
2023/06/16 04:44:48;;;;;;;5.10;4.80;;;26.70;52.10;;;;;;5023691;28;20537;-65
2023/06/16 04:47:18;;;;;;;5.97;5.47;;;26.80;52.00;;;;;;5020016;28;20471;-66
2023/06/16 04:49:48;;;;;;;5.20;4.80;;;26.70;51.90;;;;;;5018233;28;20474;-65
2023/06/16 04:52:16;;;;;;;5.63;5.23;;;26.80;51.70;;;;;;5026378;28;20858;-64
2023/06/16 04:54:46;;;;;;;5.33;4.93;;;26.80;51.50;;;;;;5024815;28;20470;-64
2023/06/16 04:57:15;;;;;;;5.57;5.17;;;26.80;51.30;;;;;;5035001;28;20463;-64
2023/06/16 04:59:43;;;;;;;5.00;4.70;;;26.80;51.40;;;;;;5020994;28;20467;-65
2023/06/16 05:02:11;;;;;;;5.70;5.20;;;26.80;51.40;;;;;;5017728;28;20460;-65
2023/06/16 05:04:43;;;;;;;4.97;4.57;;;26.80;51.40;;;;;;5015240;28;20482;-65
2023/06/16 05:07:14;;;;;;;6.00;5.50;;;26.80;51.50;;;;;;5024101;28;20898;-64
2023/06/16 05:09:42;;;;;;;6.70;6.10;;;26.80;51.60;;;;;;5022116;28;21011;-64
2023/06/16 05:12:12;;;;;;;5.57;5.07;;;26.80;51.60;;;;;;5036719;28;20460;-65
2023/06/16 05:14:41;;;;;;;7.40;5.87;;;26.80;51.60;;;;;;5016108;28;20473;-65
2023/06/16 05:17:11;;;;;;;8.93;5.37;;;26.80;51.60;;;;;;5040720;28;20476;-64
2023/06/16 05:19:40;;;;;;;7.00;6.37;;;26.80;51.70;;;;;;5020585;28;20523;-65
2023/06/16 05:22:08;;;;;;;8.00;5.80;;;26.80;51.70;;;;;;5040019;28;20896;-64
2023/06/16 05:24:37;;;;;;;7.30;5.40;;;26.70;51.70;;;;;;5020814;28;20457;-65
2023/06/16 05:27:06;;;;;;;6.37;5.77;;;26.70;51.70;;;;;;5018652;28;20459;-66
2023/06/16 05:29:36;;;;;;;7.13;6.37;;;26.80;51.80;;;;;;5015890;28;20450;-66
2023/06/16 05:32:06;;;;;;;6.73;5.90;;;26.80;51.80;;;;;;5021822;28;21015;-66
2023/06/16 05:34:35;;;;;;;5.87;5.43;;;26.70;51.90;;;;;;5021041;28;20501;-66
2023/06/16 05:37:05;;;;;;;6.63;6.13;;;26.70;51.90;;;;;;5016049;28;20465;-66
2023/06/16 05:39:33;;;;;;;6.97;5.90;;;26.80;51.80;;;;;;5029258;28;21009;-66
2023/06/16 05:42:01;;;;;;;6.30;5.80;;;26.70;51.80;;;;;;5023357;28;20969;-66
2023/06/16 05:44:30;;;;;;;5.57;5.17;;;26.70;51.90;;;;;;5027295;28;20467;-65
2023/06/16 05:47:00;;;;;;;7.47;6.30;;;26.70;51.90;;;;;;5027332;28;20960;-66
2023/06/16 05:49:28;;;;;;;9.07;6.37;;;26.70;52.00;;;;;;5027266;28;20471;-66
2023/06/16 05:51:57;;;;;;;5.90;5.40;;;26.70;52.00;;;;;;5031504;28;20450;-65
2023/06/16 05:54:25;;;;;;;6.77;6.10;;;26.80;52.00;;;;;;5020316;28;20475;-66
2023/06/16 05:56:54;;;;;;;6.43;5.93;;;26.70;52.00;;;;;;5015593;28;20450;-66
2023/06/16 05:59:22;;;;;;;5.47;5.13;;;26.70;52.10;;;;;;5047085;28;20525;-66
2023/06/16 06:01:50;;;;;;;6.03;5.53;;;26.70;52.10;;;;;;5024678;28;20466;-70
2023/06/16 06:04:28;;;;;;;5.97;5.50;;;26.70;52.10;;;;;;5038553;28;20514;-69
2023/06/16 06:07:00;;;;;;;5.93;5.53;;;26.70;52.10;;;;;;5015466;28;20578;-67
2023/06/16 06:09:30;;;;;;;6.93;6.33;;;26.80;52.10;;;;;;5016771;28;20535;-67
2023/06/16 06:11:58;;;;;;;5.43;5.03;;;26.80;52.20;;;;;;5021416;28;20935;-67
2023/06/16 06:14:26;;;;;;;6.40;6.00;;;26.80;52.40;;;;;;5035399;28;20459;-70
2023/06/16 06:16:54;;;;;;;6.03;5.57;;;26.80;52.50;;;;;;5018991;28;20552;-67
2023/06/16 06:19:24;;;;;;;5.83;5.33;;;26.80;52.50;;;;;;5024242;28;20865;-71
2023/06/16 06:21:54;;;;;;;6.93;6.33;;;26.80;52.50;;;;;;5020718;28;20555;-66
2023/06/16 06:24:23;;;;;;;6.47;6.07;;;26.80;52.60;;;;;;5023217;28;20462;-66
2023/06/16 06:26:52;;;;;;;6.30;5.80;;;26.90;52.60;;;;;;5026721;28;20464;-67
2023/06/16 06:29:20;;;;;;;6.37;5.87;;;26.90;52.60;;;;;;5029396;28;20977;-67
2023/06/16 06:31:49;;;;;;;6.00;5.40;;;26.90;52.60;;;;;;5030386;28;20475;-66
2023/06/16 06:34:17;;;;;;;5.70;5.20;;;26.90;52.60;;;;;;5026544;28;20447;-67
2023/06/16 06:36:48;;;;;;;6.90;6.27;;;26.90;52.60;;;;;;5013161;28;20475;-66
2023/06/16 06:39:18;;;;;;;6.37;5.87;;;26.90;52.70;;;;;;5023857;28;20538;-66
2023/06/16 06:41:47;;;;;;;5.70;5.30;;;26.90;52.80;;;;;;5023159;28;20467;-67
2023/06/16 06:44:19;;;;;;;6.40;5.80;;;27.00;52.50;;;;;;5020952;28;20521;-66
2023/06/16 06:46:49;;;;;;;6.33;5.83;;;27.00;52.70;;;;;;5032338;28;20478;-66
2023/06/16 06:49:19;;;;;;;5.90;5.50;;;27.00;52.70;;;;;;5020211;28;20556;-66
2023/06/16 06:51:50;;;;;;;6.27;5.77;;;27.00;52.80;;;;;;5020757;28;20463;-67
2023/06/16 06:54:18;;;;;;;6.23;5.53;;;27.00;52.90;;;;;;5029044;28;20441;-67
2023/06/16 06:56:46;;;;;;;6.67;6.17;;;27.00;52.90;;;;;;5028792;28;20469;-66
2023/06/16 06:59:15;;;;;;;5.93;5.50;;;27.00;52.90;;;;;;5021986;28;20530;-66
2023/06/16 07:01:43;;;;;;;6.60;6.10;;;27.00;53.00;;;;;;5022630;28;20460;-66
2023/06/16 07:04:11;;;;;;;6.93;6.43;;;27.00;53.00;;;;;;5023991;28;21036;-67
2023/06/16 07:06:40;;;;;;;7.17;6.47;;;27.00;53.00;;;;;;5022709;28;20463;-69
2023/06/16 07:09:09;;;;;;;7.63;7.03;;;27.10;53.00;;;;;;5028133;28;20907;-66
2023/06/16 07:11:53;;;;;;;6.50;6.00;;;27.10;53.00;;;;;;5028449;28;20494;-66
2023/06/16 07:14:21;;;;;;;7.03;6.33;;;27.10;53.00;;;;;;5024377;28;20485;-67
2023/06/16 07:16:49;;;;;;;6.33;5.83;;;27.10;53.10;;;;;;5022130;28;20472;-67
2023/06/16 07:19:18;;;;;;;6.53;6.03;;;27.10;53.10;;;;;;5030668;28;20978;-66
2023/06/16 07:21:46;;;;;;;7.13;6.40;;;27.10;53.10;;;;;;5021524;28;21113;-69
2023/06/16 07:24:16;;;;;;;7.00;5.97;;;27.10;53.00;;;;;;5008336;28;20526;-66
2023/06/16 07:26:45;;;;;;;6.30;5.70;;;27.10;52.80;;;;;;5027661;28;20460;-66
2023/06/16 07:29:13;;;;;;;7.27;6.60;;;27.10;52.70;;;;;;5027628;28;20973;-68
2023/06/16 07:31:41;;;;;;;6.37;5.97;;;27.10;52.70;;;;;;5014540;28;20429;-67
2023/06/16 07:34:09;;;;;;;6.13;5.60;;;27.10;52.60;;;;;;5018674;28;21116;-66
2023/06/16 07:36:38;;;;;;;6.27;5.87;;;27.10;52.60;;;;;;5027865;28;20536;-66
2023/06/16 07:39:06;;;;;;;6.43;5.90;;;27.10;52.60;;;;;;5032763;28;20494;-67
2023/06/16 07:41:36;;;;;;;6.33;5.93;;;27.10;52.60;;;;;;5026504;28;20458;-68
2023/06/16 07:44:05;;;;;;;5.43;5.13;;;27.10;52.60;;;;;;5020778;28;20455;-70
2023/06/16 07:46:34;;;;;;;6.20;5.80;;;27.10;52.60;;;;;;5020659;28;20462;-67
2023/06/16 07:49:02;;;;;;;6.33;5.93;;;27.10;52.50;;;;;;5032409;28;20829;-69
2023/06/16 07:51:30;;;;;;;6.40;5.90;;;27.10;52.50;;;;;;5033293;28;20443;-67
2023/06/16 07:53:58;;;;;;;7.50;6.80;;;27.10;52.50;;;;;;5032027;28;20433;-67
2023/06/16 07:56:28;;;;;;;6.73;6.13;;;27.10;52.50;;;;;;5023015;28;20474;-66
2023/06/16 07:58:57;;;;;;;7.10;6.50;;;27.10;52.60;;;;;;5023828;28;20943;-69
2023/06/16 08:01:26;;;;;;;5.80;5.40;;;27.10;52.60;;;;;;5035071;28;20455;-66
2023/06/16 08:03:56;;;;;;;6.17;5.57;;;27.10;52.60;;;;;;5034416;28;20438;-66
2023/06/16 08:06:25;;;;;;;6.33;5.93;;;27.10;52.60;;;;;;5033520;28;20865;-66
2023/06/16 08:08:53;;;;;;;5.93;5.53;;;27.10;52.60;;;;;;5033138;28;20500;-66
2023/06/16 08:11:22;;;;;;;6.70;6.10;;;27.10;52.60;;;;;;5031093;28;20815;-67
2023/06/16 08:13:50;;;;;;;5.63;5.23;;;27.10;52.60;;;;;;5021726;28;20456;-67
2023/06/16 08:16:20;;;;;;;6.83;6.33;;;27.10;52.60;;;;;;5027737;28;20476;-66
2023/06/16 08:18:50;;;;;;;5.50;5.00;;;27.10;52.40;;;;;;5034184;28;20446;-69
2023/06/16 08:21:18;;;;;;;5.90;5.40;;;27.10;52.40;;;;;;5034160;28;20432;-66
2023/06/16 08:23:47;;;;;;;5.20;4.80;;;27.10;52.20;;;;;;5034356;28;20460;-66
2023/06/16 08:26:16;;;;;;;5.70;5.20;;;27.10;51.90;;;;;;5031956;28;20468;-66
2023/06/16 08:28:44;;;;;;;6.60;5.03;;;27.10;51.60;;;;;;5034013;28;20490;-66
2023/06/16 08:31:13;;;;;;;5.57;5.07;;;27.10;51.50;;;;;;5018402;28;20460;-67
2023/06/16 08:33:42;;;;;;;4.63;4.33;;;27.10;51.40;;;;;;5014323;28;20939;-66
2023/06/16 08:36:11;;;;;;;5.57;5.07;;;27.10;51.10;;;;;;5025640;28;21023;-66
2023/06/16 08:38:39;;;;;;;5.30;4.90;;;27.10;51.00;;;;;;5033840;28;20451;-66
2023/06/16 08:41:10;;;;;;;4.90;4.50;;;27.10;50.80;;;;;;5030259;28;20877;-66
2023/06/16 08:43:38;;;;;;;5.83;5.43;;;27.10;50.70;;;;;;5027935;28;21042;-66
2023/06/16 08:46:08;;;;;;;4.93;4.53;;;27.10;50.60;;;;;;5022628;28;20483;-67
2023/06/16 08:48:37;;;;;;;4.47;4.17;;;27.20;50.50;;;;;;5033904;28;20974;-66
2023/06/16 08:51:13;;;;;;;5.10;4.70;;;27.10;50.40;;;;;;5019732;28;20462;-66
2023/06/16 08:53:46;;;;;;;4.77;4.47;;;27.10;50.30;;;;;;5022879;28;20458;-68
2023/06/16 08:56:17;;;;;;;5.10;4.60;;;27.10;50.20;;;;;;5020473;28;20484;-66
2023/06/16 08:58:48;;;;;;;5.20;4.80;;;27.10;50.10;;;;;;5021374;28;20458;-66
2023/06/16 09:01:16;;;;;;;4.97;4.57;;;27.10;50.00;;;;;;5017368;28;20452;-66
2023/06/16 09:03:47;;;;;;;5.40;5.00;;;27.10;49.90;;;;;;5023523;28;20448;-67
2023/06/16 09:06:17;;;;;;;4.30;4.00;;;27.10;49.80;;;;;;5032921;28;20456;-67
2023/06/16 09:08:46;;;;;;;4.77;4.40;;;27.10;49.60;;;;;;5025290;28;20488;-65
2023/06/16 09:11:22;;;;;;;4.97;4.57;;;27.10;49.60;;;;;;5019518;28;20445;-65
2023/06/16 09:13:51;;;;;;;4.73;4.33;;;27.10;49.40;;;;;;5019211;28;20462;-66
2023/06/16 09:16:21;;;;;;;4.70;4.30;;;27.10;49.40;;;;;;5023967;28;20499;-67
2023/06/16 09:18:50;;;;;;;4.87;4.30;;;27.10;49.30;;;;;;5018608;28;20457;-65
2023/06/16 09:21:24;;;;;;;5.10;4.70;;;27.10;49.00;;;;;;5021959;28;20451;-64
2023/06/16 09:23:57;;;;;;;4.37;4.07;;;27.10;48.90;;;;;;5014626;28;20460;-65
2023/06/16 09:26:29;;;;;;;4.47;4.07;;;27.10;48.70;;;;;;5017701;28;20456;-66
2023/06/16 09:28:58;;;;;;;4.20;3.80;;;27.10;49.00;;;;;;5024010;28;20452;-66
2023/06/16 09:31:28;;;;;;;6.30;4.53;;;27.10;48.90;;;;;;5021002;28;20481;-66
2023/06/16 09:34:05;;;;;;;4.20;3.90;;;27.20;48.80;;;;;;5018060;28;20514;-65
2023/06/16 09:36:37;;;;;;;5.97;4.30;;;27.10;48.80;;;;;;5024460;28;20498;-64
2023/06/16 09:39:21;;;;;;;4.80;4.40;;;27.10;48.80;;;;;;5020315;28;20459;-64
2023/06/16 09:41:50;;;;;;;4.77;4.37;;;27.10;48.60;;;;;;5021517;28;20467;-67
2023/06/16 09:44:23;;;;;;;5.57;4.90;;;27.10;47.50;;;;;;5030763;28;20543;-66
2023/06/16 09:46:52;;;;;;;5.13;4.60;;;27.10;47.80;;;;;;5024964;28;20510;-65
2023/06/16 09:49:21;;;;;;;5.17;4.77;;;27.10;48.00;;;;;;5023563;28;20455;-65
2023/06/16 09:51:57;;;;;;;4.93;4.50;;;27.10;48.40;;;;;;5020197;28;20462;-64
2023/06/16 09:54:26;;;;;;;5.27;4.60;;;27.20;48.50;;;;;;5023547;28;20509;-65
2023/06/16 09:56:56;;;;;;;5.23;4.73;;;27.20;48.50;;;;;;5017900;28;20559;-64
2023/06/16 09:59:26;;;;;;;4.90;4.50;;;27.20;48.50;;;;;;5018623;28;20514;-64
2023/06/16 10:01:58;;;;;;;5.20;4.80;;;27.20;48.40;;;;;;5017338;28;20453;-64
2023/06/16 10:04:30;;;;;;;5.00;4.60;;;27.20;48.50;;;;;;5019678;28;20444;-64
2023/06/16 10:07:02;;;;;;;6.93;4.73;;;27.20;48.50;;;;;;5018867;28;20574;-64
2023/06/16 10:09:36;;;;;;;5.97;4.47;;;27.20;48.50;;;;;;5026126;28;20955;-64
2023/06/16 10:12:06;;;;;;;4.50;4.20;;;27.30;48.60;;;;;;5019810;28;20556;-64
2023/06/16 10:14:35;;;;;;;4.73;4.33;;;27.30;48.50;;;;;;5024172;28;20450;-64
2023/06/16 10:17:05;;;;;;;5.00;4.50;;;27.30;48.40;;;;;;5026693;28;20480;-65
2023/06/16 10:19:37;;;;;;;4.37;3.97;;;27.30;48.50;;;;;;5023559;28;20458;-64
2023/06/16 10:22:07;;;;;;;4.63;4.20;;;27.30;48.10;;;;;;5018159;28;20957;-65
2023/06/16 10:24:40;;;;;;;4.87;3.77;;;27.30;48.30;;;;;;5015445;28;20458;-68
2023/06/16 10:27:10;;;;;;;4.73;4.33;;;27.30;48.50;;;;;;5042752;28;20488;-65
2023/06/16 10:29:39;;;;;;;4.50;4.13;;;27.30;48.50;;;;;;5030063;28;20937;-66
2023/06/16 10:32:10;;;;;;;3.90;3.60;;;27.30;48.60;;;;;;5017145;28;20502;-64
2023/06/16 10:34:49;;;;;;;4.37;3.97;;;27.30;48.70;;;;;;5014870;28;20516;-64
2023/06/16 10:37:22;;;;;;;5.13;3.97;;;27.30;48.90;;;;;;5020680;28;21039;-64
2023/06/16 10:39:55;;;;;;;5.57;4.53;;;27.30;48.80;;;;;;5021065;28;20538;-64
2023/06/16 10:42:24;;;;;;;5.50;4.20;;;27.30;48.70;;;;;;5019802;28;20458;-71
2023/06/16 10:44:53;;;;;;;4.80;4.50;;;27.30;48.70;;;;;;5017628;28;20891;-66
2023/06/16 10:47:30;;;;;;;4.33;4.03;;;27.40;48.70;;;;;;5013119;28;20457;-66
2023/06/16 10:50:02;;;;;;;5.33;3.90;;;27.40;48.50;;;;;;5017397;28;20930;-68
2023/06/16 10:52:53;;;;;;;4.57;4.17;;;27.40;48.50;;;;;;5017071;28;20499;-67
2023/06/16 10:55:35;;;;;;;4.40;4.10;;;27.40;48.40;;;;;;5010362;28;20464;-65
2023/06/16 10:58:26;;;;;;;5.97;4.50;;;27.40;48.50;;;;;;5018246;28;20485;-64
2023/06/16 11:01:24;;;;;;;4.90;4.40;;;27.40;48.40;;;;;;5020117;28;20799;-65
2023/06/16 11:04:04;;;;;;;4.00;3.70;;;27.40;48.10;;;;;;5013928;28;20464;-65
2023/06/16 11:07:08;;;;;;;4.87;4.47;;;27.40;48.10;;;;;;5021048;28;20471;-68
2023/06/16 11:10:00;;;;;;;4.70;4.33;;;27.40;48.30;;;;;;5012267;28;20888;-67
2023/06/16 11:12:29;;;;;;;3.97;3.67;;;27.30;48.70;;;;;;5011429;28;20449;-65
2023/06/16 11:14:57;;;;;;;6.80;4.60;;;27.30;49.00;;;;;;5010745;28;20443;-67
2023/06/16 11:17:25;;;;;;;4.23;3.93;;;27.30;49.20;;;;;;5024052;28;20477;-65
2023/06/16 11:19:55;;;;;;;4.27;3.97;;;27.30;49.30;;;;;;5012877;28;21480;-66
2023/06/16 11:22:31;;;;;;;4.57;4.17;;;27.30;49.60;;;;;;5011122;28;20458;-68
2023/06/16 11:25:03;;;;;;;4.47;4.17;;;27.30;49.70;;;;;;5010612;28;20475;-67
2023/06/16 11:27:32;;;;;;;6.17;4.23;;;27.30;49.80;;;;;;5018904;28;20457;-67
2023/06/16 11:30:02;;;;;;;4.20;3.80;;;27.30;49.80;;;;;;5021588;28;20862;-66
2023/06/16 11:32:32;;;;;;;4.30;4.00;;;27.30;49.90;;;;;;5012715;28;20874;-67
2023/06/16 11:35:01;;;;;;;4.93;4.20;;;27.30;49.90;;;;;;5017454;28;20568;-67
2023/06/16 11:37:48;;;;;;;10.03;4.50;;;27.30;49.80;;;;;;5018280;28;20475;-73
2023/06/16 11:40:20;;;;;;;5.17;4.77;;;27.30;49.70;;;;;;5028836;28;20463;-69
2023/06/16 11:42:56;;;;;;;4.70;4.30;;;27.30;49.70;;;;;;5024736;28;20494;-68
2023/06/16 11:45:26;;;;;;;4.67;4.30;;;27.20;49.90;;;;;;5012928;28;20447;-68
2023/06/16 11:47:55;;;;;;;5.60;4.17;;;27.30;50.10;;;;;;5020788;28;20946;-68
2023/06/16 11:50:24;;;;;;;6.13;4.43;;;27.30;50.20;;;;;;5022928;28;20455;-68
2023/06/16 11:52:53;;;;;;;4.43;4.13;;;27.20;50.20;;;;;;5017369;28;20480;-68
2023/06/16 11:55:24;;;;;;;4.17;3.87;;;27.20;50.20;;;;;;5018461;28;20464;-69
2023/06/16 11:57:57;;;;;;;4.10;3.80;;;27.30;50.30;;;;;;5017292;28;20505;-68
2023/06/16 12:00:27;;;;;;;3.70;3.50;;;27.30;50.30;;;;;;5008645;28;20812;-69
2023/06/16 12:02:56;;;;;;;4.50;4.10;;;27.30;50.00;;;;;;5012462;28;20465;-68
2023/06/16 12:05:26;;;;;;;3.43;3.23;;;27.30;49.70;;;;;;5008880;28;20472;-69
2023/06/16 12:07:55;;;;;;;4.67;4.30;;;27.30;49.50;;;;;;5015122;28;20515;-74
2023/06/16 12:10:26;;;;;;;3.70;3.40;;;27.30;49.40;;;;;;5014899;28;20692;-73
2023/06/16 12:12:54;;;;;;;4.10;3.80;;;27.40;49.20;;;;;;5014579;28;20469;-71
2023/06/16 12:15:24;;;;;;;5.03;4.60;;;27.50;48.70;;;;;;5016914;28;20469;-72
2023/06/16 12:17:56;;;;;;;4.53;3.57;;;27.60;48.60;;;;;;5015751;28;20480;-69
2023/06/16 12:20:25;;;;;;;4.07;3.77;;;27.80;48.70;;;;;;5018247;28;20497;-71
2023/06/16 12:22:56;;;;;;;4.80;4.40;;;28.00;49.10;;;;;;5019661;28;20468;-71
2023/06/16 12:25:26;;;;;;;3.93;3.67;;;28.20;49.20;;;;;;5017229;28;20501;-68
2023/06/16 12:27:58;;;;;;;4.33;3.93;;;28.20;49.00;;;;;;5016331;28;20469;-69
2023/06/16 12:30:34;;;;;;;3.83;3.53;;;28.10;49.10;;;;;;5017178;28;20453;-70
2023/06/16 12:33:12;;;;;;;4.60;4.30;;;28.20;49.30;;;;;;5018385;28;20471;-69
2023/06/16 12:35:41;;;;;;;5.27;4.77;;;28.20;49.00;;;;;;5016899;28;20500;-68
2023/06/16 12:38:09;;;;;;;4.87;4.50;;;28.20;49.40;;;;;;5016169;28;20484;-71
2023/06/16 12:40:43;;;;;;;3.83;3.60;;;28.20;49.30;;;;;;5018939;28;20496;-70
2023/06/16 12:43:24;;;;;;;4.10;3.80;;;28.30;49.30;;;;;;5018077;28;20466;-71
2023/06/16 12:45:53;;;;;;;4.67;4.20;;;28.30;49.30;;;;;;5018488;28;20468;-78
2023/06/16 12:48:23;;;;;;;4.70;4.40;;;28.30;49.30;;;;;;5015701;28;20485;-72
2023/06/16 12:50:53;;;;;;;4.47;4.03;;;28.30;49.20;;;;;;5020331;28;20516;-69
2023/06/16 12:53:21;;;;;;;4.07;3.77;;;28.40;49.00;;;;;;5020966;28;21029;-69
2023/06/16 12:55:51;;;;;;;5.63;4.30;;;28.30;48.80;;;;;;5017667;28;20479;-69
2023/06/16 12:58:19;;;;;;;4.40;4.00;;;28.30;48.80;;;;;;5017065;28;20479;-69
2023/06/16 13:00:47;;;;;;;4.90;4.50;;;28.30;48.60;;;;;;5015582;28;20471;-69
2023/06/16 13:03:15;;;;;;;4.93;4.47;;;28.30;48.20;;;;;;5018595;28;20520;-71
2023/06/16 13:05:44;;;;;;;6.60;4.47;;;28.30;47.90;;;;;;5017438;28;20498;-72